Time;durP1;ratioP1;P1;durP2;ratioP2;P2;SDS_P1;SDS_P2;PMS_P1;PMS_P2;Temp;Humidity;BMP_temperature;BMP_pressure;BME280_temperature;BME280_humidity;BME280_pressure;Samples;Min_cycle;Max_cycle;Signal;HPM_P1;HPM_P2
2022/06/20 00:02:23;;;;;;;2.90;1.80;;;;;;;20.13;56.46;99299.59;108816;1281;22481;-55
2022/06/20 00:04:51;;;;;;;4.60;2.20;;;;;;;20.11;56.40;99298.21;108811;1280;137353;-55
2022/06/20 00:07:18;;;;;;;4.20;2.20;;;;;;;20.09;56.41;99303.30;108842;1281;22449;-53
2022/06/20 00:09:46;;;;;;;4.40;1.90;;;;;;;20.08;56.43;99302.23;108905;1281;22535;-53
2022/06/20 00:12:18;;;;;;;3.10;2.10;;;;;;;20.06;56.55;99304.29;108775;1280;137739;-54
2022/06/20 00:14:46;;;;;;;2.90;1.70;;;;;;;20.03;56.56;99304.13;108881;1279;23323;-54
2022/06/20 00:17:14;;;;;;;3.00;2.10;;;;;;;20.01;56.54;99307.18;105245;1278;138449;-57
2022/06/20 00:19:42;;;;;;;2.40;1.70;;;;;;;19.99;56.68;99302.55;104778;1280;22560;-57
2022/06/20 00:22:10;;;;;;;3.10;1.80;;;;;;;19.97;56.74;99302.05;109067;1277;22544;-57
2022/06/20 00:24:37;;;;;;;3.10;2.00;;;;;;;19.94;56.64;99301.37;108805;1280;138157;-58
2022/06/20 00:27:06;;;;;;;2.50;1.60;;;;;;;19.91;56.69;99301.73;108771;1280;22252;-57
2022/06/20 00:29:34;;;;;;;3.30;1.70;;;;;;;19.88;56.96;99309.27;108712;1280;138708;-58
2022/06/20 00:32:01;;;;;;;2.40;1.80;;;;;;;19.85;56.82;99303.76;108777;1278;23674;-59
2022/06/20 00:34:28;;;;;;;2.30;1.70;;;;;;;19.83;56.98;99308.60;109011;1278;23410;-58
2022/06/20 00:36:54;;;;;;;3.70;1.70;;;;;;;19.78;56.94;99303.52;108800;1279;138811;-60
2022/06/20 00:39:21;;;;;;;2.00;1.70;;;;;;;19.76;56.96;99304.82;108792;1280;22909;-59
2022/06/20 00:41:48;;;;;;;3.60;2.00;;;;;;;19.72;56.96;99302.77;108817;1279;139166;-59
2022/06/20 00:44:19;;;;;;;3.60;2.10;;;;;;;19.70;56.97;99303.52;108717;1279;23366;-60
2022/06/20 00:46:49;;;;;;;3.80;2.10;;;;;;;19.67;57.09;99299.44;108789;1278;140402;-54
2022/06/20 00:49:26;;;;;;;5.20;2.20;;;;;;;19.64;57.13;99298.15;109003;1280;22287;-54
2022/06/20 00:51:55;;;;;;;4.10;2.10;;;;;;;19.60;57.12;99296.97;109002;1280;22590;-54
2022/06/20 00:54:29;;;;;;;4.20;1.90;;;;;;;19.57;57.17;99293.98;108809;1279;137356;-54
2022/06/20 00:57:10;;;;;;;6.00;2.10;;;;;;;19.53;57.21;99293.08;108951;1280;22553;-55
2022/06/20 00:59:38;;;;;;;4.80;2.00;;;;;;;19.51;57.24;99294.37;108805;1280;137509;-54
2022/06/20 01:02:06;;;;;;;4.30;1.90;;;;;;;19.48;57.41;99293.83;108692;1280;22485;-55
2022/06/20 01:04:43;;;;;;;4.00;2.30;;;;;;;19.45;57.38;99293.92;108620;1280;137428;-55
2022/06/20 01:07:18;;;;;;;6.30;2.40;;;;;;;19.41;57.32;99294.63;108985;1279;23463;-55
2022/06/20 01:09:46;;;;;;;3.10;2.00;;;;;;;19.38;57.52;99289.11;108740;1279;22324;-55
2022/06/20 01:12:15;;;;;;;3.70;1.90;;;;;;;19.36;57.42;99283.45;108793;1279;137181;-54
2022/06/20 01:14:42;;;;;;;4.80;1.90;;;;;;;19.33;57.37;99280.48;109053;1277;22464;-54
2022/06/20 01:17:38;;;;;;;4.20;2.00;;;;;;;19.30;57.33;99278.61;105349;1280;139021;-54
2022/06/20 01:20:18;;;;;;;2.50;2.00;;;;;;;19.27;57.53;99275.77;104012;1287;24353;-54
2022/06/20 01:22:50;;;;;;;2.70;2.00;;;;;;;19.23;57.54;99267.85;103945;1285;138201;-54
2022/06/20 01:25:38;;;;;;;4.90;2.40;;;;;;;19.20;57.46;99271.23;104189;1284;25271;-54
2022/06/20 01:28:07;;;;;;;3.00;2.20;;;;;;;19.16;57.57;99272.34;104185;1284;24227;-54
2022/06/20 01:30:34;;;;;;;3.50;2.20;;;;;;;19.12;57.69;99273.40;108267;1284;137617;-54
2022/06/20 01:33:01;;;;;;;3.30;2.00;;;;;;;19.08;57.76;99273.17;108250;1285;22488;-54
2022/06/20 01:38:14;;;;;;;2.20;2.00;;;;;;;19.01;57.70;99272.33;108362;1284;22478;-55
2022/06/20 01:42:18;;;;;;;3.40;1.80;;;;;;;18.98;57.81;99278.96;108000;1286;139709;-54
2022/06/20 01:43:29;;;;;;;1.90;1.70;;;;;;;18.95;57.98;99273.04;108180;1286;22453;-55
2022/06/20 01:45:59;;;;;;;7.90;2.40;;;;;;;18.92;58.00;99270.68;108331;1285;23151;-55
2022/06/20 01:48:28;;;;;;;8.50;2.00;;;;;;;18.90;57.91;99269.88;108198;1284;137550;-55
2022/06/20 01:50:55;;;;;;;3.50;2.00;;;;;;;18.89;57.99;99272.80;108334;1286;23466;-55
2022/06/20 01:53:25;;;;;;;5.20;2.10;;;;;;;18.85;57.98;99272.39;108350;1283;137655;-55
2022/06/20 01:55:52;;;;;;;3.70;2.30;;;;;;;18.85;58.02;99270.30;108091;1282;23025;-55
2022/06/20 01:58:32;;;;;;;5.40;2.10;;;;;;;18.82;58.01;99266.23;108779;1281;22518;-59
2022/06/20 02:00:59;;;;;;;4.70;2.10;;;;;;;18.80;58.04;99267.94;108989;1280;22467;-58
2022/06/20 02:03:26;;;;;;;3.50;2.20;;;;;;;18.78;57.87;99268.86;108796;1279;23382;-58
2022/06/20 02:05:54;;;;;;;3.40;2.20;;;;;;;18.77;57.96;99270.13;108611;1277;138188;-58
2022/06/20 02:08:22;;;;;;;3.50;2.10;;;;;;;18.75;58.04;99269.75;108935;1279;23153;-58
2022/06/20 02:10:51;;;;;;;4.60;2.30;;;;;;;18.74;57.98;99273.74;108563;1279;140692;-58
2022/06/20 02:13:18;;;;;;;3.60;2.20;;;;;;;18.74;57.96;99274.09;108900;1280;22501;-59
2022/06/20 02:15:45;;;;;;;2.80;2.10;;;;;;;18.72;58.12;99275.73;107834;1280;22537;-55
2022/06/20 02:18:12;;;;;;;2.00;1.80;;;;;;;18.71;57.93;99282.00;104635;1280;137411;-55
2022/06/20 02:20:45;;;;;;;3.30;2.30;;;;;;;18.71;57.93;99282.00;104504;1280;25320;-55
2022/06/20 02:23:14;;;;;;;5.80;2.20;;;;;;;18.70;58.09;99285.11;108810;1279;137663;-55
2022/06/20 02:25:41;;;;;;;4.10;2.40;;;;;;;18.68;58.26;99284.70;108925;1279;22525;-55
2022/06/20 02:28:09;;;;;;;5.70;2.30;;;;;;;18.68;58.07;99289.80;108859;1279;22436;-55
2022/06/20 02:30:36;;;;;;;4.10;2.00;;;;;;;18.67;58.09;99291.30;108904;1277;137490;-56
2022/06/20 02:33:18;;;;;;;5.60;2.40;;;;;;;18.68;58.14;99292.02;108845;1280;22527;-55
2022/06/20 02:35:44;;;;;;;4.60;2.60;;;;;;;18.68;58.26;99290.36;108849;1277;137410;-55
2022/06/20 02:38:11;;;;;;;4.60;2.30;;;;;;;18.68;58.40;99294.80;108947;1280;22524;-55
2022/06/20 02:40:41;;;;;;;4.10;2.40;;;;;;;18.68;58.47;99298.12;108800;1278;137989;-55
2022/06/20 02:43:20;;;;;;;4.10;3.00;;;;;;;18.69;58.39;99298.71;108873;1280;23188;-58
2022/06/20 02:45:47;;;;;;;3.40;2.30;;;;;;;18.70;58.38;99301.13;108959;1278;22478;-58
2022/06/20 02:48:15;;;;;;;8.60;2.70;;;;;;;18.70;58.36;99298.69;105430;1280;139271;-58
2022/06/20 02:50:48;;;;;;;4.70;2.20;;;;;;;18.72;58.36;99301.08;104763;1277;25444;-59
2022/06/20 02:53:23;;;;;;;5.30;3.30;;;;;;;18.73;58.38;99306.40;104746;1278;138244;-58
2022/06/20 02:55:51;;;;;;;6.20;2.80;;;;;;;18.75;58.46;99309.17;104801;1277;22679;-54
2022/06/20 02:58:25;;;;;;;8.80;3.10;;;;;;;18.76;58.46;99311.66;104905;1280;22575;-54
2022/06/20 03:00:55;;;;;;;6.90;2.70;;;;;;;18.78;58.61;99312.05;108912;1277;138401;-54
2022/06/20 03:03:34;;;;;;;5.20;3.00;;;;;;;18.78;58.63;99312.32;108976;1279;22922;-54
2022/06/20 03:06:02;;;;;;;4.40;2.80;;;;;;;18.79;58.72;99314.17;108885;1279;138892;-54
2022/06/20 03:08:30;;;;;;;4.00;3.00;;;;;;;18.80;58.75;99311.55;108899;1280;23244;-53
2022/06/20 03:11:01;;;;;;;6.20;2.80;;;;;;;18.82;58.83;99317.17;108609;1281;138024;-55
2022/06/20 03:13:28;;;;;;;4.60;2.50;;;;;;;18.84;59.01;99315.70;108645;1281;22444;-52
2022/06/20 03:15:55;;;;;;;5.60;2.80;;;;;;;18.86;59.05;99317.96;108983;1277;22432;-53
2022/06/20 03:18:22;;;;;;;5.90;3.10;;;;;;;18.89;58.95;99317.85;108824;1279;138465;-54
2022/06/20 03:20:49;;;;;;;8.70;2.80;;;;;;;18.92;59.02;99318.63;108965;1279;23855;-54
2022/06/20 03:23:24;;;;;;;7.50;3.30;;;;;;;18.94;59.41;99318.52;108886;1279;137615;-54
2022/06/20 03:25:51;;;;;;;7.60;3.10;;;;;;;18.97;59.63;99324.11;108700;1281;22529;-54
2022/06/20 03:28:19;;;;;;;7.50;3.80;;;;;;;19.00;59.48;99321.73;108601;1279;23110;-54
2022/06/20 03:31:01;;;;;;;5.80;3.10;;;;;;;19.03;59.61;99320.05;108701;1279;23196;-54
2022/06/20 03:33:29;;;;;;;5.20;3.30;;;;;;;19.06;59.63;99318.88;109012;1280;22433;-54
2022/06/20 03:36:00;;;;;;;6.90;3.10;;;;;;;19.10;59.62;99320.78;108788;1279;137817;-54
2022/06/20 03:38:27;;;;;;;7.60;3.60;;;;;;;19.14;59.57;99324.31;108948;1278;22569;-55
2022/06/20 03:40:54;;;;;;;4.20;2.70;;;;;;;19.18;59.75;99329.56;108491;1279;138200;-55
2022/06/20 03:43:23;;;;;;;5.40;3.50;;;;;;;19.22;59.85;99324.23;108924;1279;22444;-55
2022/06/20 03:45:54;;;;;;;5.20;3.10;;;;;;;19.26;59.85;99318.56;108777;1279;22587;-55
2022/06/20 03:48:25;;;;;;;5.40;3.80;;;;;;;19.31;59.98;99320.73;108584;1281;137918;-55
2022/06/20 03:50:58;;;;;;;10.70;3.50;;;;;;;19.36;59.92;99314.65;108828;1279;22528;-54
2022/06/20 03:53:29;;;;;;;9.00;4.00;;;;;;;19.40;60.07;99308.17;108466;1279;138653;-54
2022/06/20 03:56:20;;;;;;;6.00;3.20;;;;;;;19.47;60.31;99308.26;108882;1276;22470;-54
2022/06/20 03:58:51;;;;;;;9.20;3.40;;;;;;;19.53;60.19;99304.43;108696;1277;138359;-55
2022/06/20 04:01:23;;;;;;;7.80;4.10;;;;;;;19.58;60.00;99299.02;108811;1279;23515;-54
2022/06/20 04:04:00;;;;;;;9.30;4.70;;;;;;;19.64;59.45;99292.17;108929;1278;22677;-55
2022/06/20 04:06:44;;;;;;;10.10;4.60;;;;;;;19.71;59.00;99284.84;108883;1277;137638;-55
2022/06/20 04:12:25;;;;;;;14.00;4.30;;;;;;;19.87;58.50;99267.00;108728;1278;137530;-55
2022/06/20 04:14:59;;;;;;;7.10;3.50;;;;;;;19.94;58.05;99258.23;108995;1277;22546;-55
2022/06/20 04:21:00;;;;;;;6.70;3.30;;;;;;;20.10;57.19;99255.65;108892;1277;22504;-55
2022/06/20 04:23:50;;;;;;;3.90;2.50;;;;;;;20.20;56.92;99246.11;108300;1284;139433;-55
2022/06/20 04:26:21;;;;;;;4.00;3.10;;;;;;;20.28;56.88;99248.38;108569;1283;22481;-55
2022/06/20 04:28:52;;;;;;;3.80;2.70;;;;;;;20.35;56.59;99240.02;108414;1283;138315;-55
2022/06/20 04:31:46;;;;;;;6.00;3.20;;;;;;;20.44;56.25;99239.48;108466;1283;23079;-54
2022/06/20 04:34:18;;;;;;;5.30;2.90;;;;;;;20.54;56.27;99237.59;108548;1282;23197;-54
2022/06/20 04:36:56;;;;;;;4.30;2.40;;;;;;;20.60;55.83;99234.47;108215;1284;137530;-54
2022/06/20 04:39:37;;;;;;;4.20;2.60;;;;;;;20.69;55.71;99226.23;108363;1284;22504;-54
2022/06/20 04:42:18;;;;;;;5.90;3.00;;;;;;;20.79;55.73;99223.23;108248;1283;137398;-55
2022/06/20 04:44:54;;;;;;;5.00;3.00;;;;;;;20.88;55.40;99217.81;108420;1283;22302;-55
2022/06/20 04:47:33;;;;;;;5.60;2.80;;;;;;;20.96;55.14;99214.81;108379;1283;137555;-55
2022/06/20 04:50:00;;;;;;;5.50;2.40;;;;;;;21.05;54.69;99210.05;108601;1281;22499;-55
2022/06/20 04:52:27;;;;;;;3.80;2.60;;;;;;;21.13;54.12;99203.84;108359;1284;22484;-55
2022/06/20 04:54:54;;;;;;;6.90;2.70;;;;;;;21.20;54.05;99203.21;108408;1283;137956;-55
2022/06/20 04:57:22;;;;;;;3.40;1.80;;;;;;;21.27;53.96;99199.48;108385;1284;22447;-53
2022/06/20 04:59:56;;;;;;;2.60;2.10;;;;;;;21.37;53.52;99199.77;108516;1281;137949;-54
2022/06/20 05:02:23;;;;;;;4.20;2.50;;;;;;;21.46;53.15;99199.48;108595;1280;23188;-55
2022/06/20 05:04:50;;;;;;;8.90;2.60;;;;;;;21.55;52.88;99199.27;108543;1281;137668;-54
2022/06/20 05:07:22;;;;;;;2.20;2.00;;;;;;;21.65;52.82;99196.06;108662;1279;23283;-53
2022/06/20 05:09:59;;;;;;;3.80;3.10;;;;;;;21.77;52.80;99195.58;108523;1281;22417;-54
2022/06/20 05:12:35;;;;;;;4.60;2.60;;;;;;;21.89;52.14;99195.48;108596;1279;138264;-54
2022/06/20 05:15:35;;;;;;;10.80;2.50;;;;;;;22.03;51.92;99198.77;108497;1279;22543;-53
2022/06/20 05:18:08;;;;;;;2.20;2.00;;;;;;;22.27;51.63;99208.26;108492;1281;137590;-54
2022/06/20 05:20:35;;;;;;;3.40;2.50;;;;;;;22.50;51.23;99210.17;108540;1279;22495;-54
2022/06/20 05:23:15;;;;;;;12.10;2.80;;;;;;;22.77;50.51;99208.65;108561;1279;137656;-55
2022/06/20 05:25:42;;;;;;;6.10;2.60;;;;;;;23.10;49.81;99210.20;108714;1281;22669;-55
2022/06/20 05:28:17;;;;;;;5.70;2.70;;;;;;;23.46;49.04;99214.52;108731;1280;22500;-56
2022/06/20 05:30:44;;;;;;;4.50;2.80;;;;;;;23.88;48.08;99213.00;108630;1280;137625;-56
2022/06/20 05:33:22;;;;;;;7.90;2.80;;;;;;;24.28;47.40;99208.95;108577;1279;22500;-56
2022/06/20 05:35:52;;;;;;;5.40;2.80;;;;;;;24.71;46.75;99207.61;107290;1280;137771;-55
2022/06/20 05:38:46;;;;;;;4.50;2.50;;;;;;;25.08;45.74;99201.10;104749;1280;24253;-55
2022/06/20 05:41:13;;;;;;;3.40;2.30;;;;;;;25.48;44.38;99201.29;104485;1280;138656;-54
2022/06/20 05:43:40;;;;;;;6.90;3.00;;;;;;;25.79;43.56;99197.02;108933;1279;22435;-55
2022/06/20 05:46:11;;;;;;;4.60;2.70;;;;;;;26.04;43.13;99194.52;108878;1279;22559;-56
2022/06/20 05:48:40;;;;;;;5.00;2.90;;;;;;;26.27;42.21;99193.70;105937;1280;137470;-55
2022/06/20 05:51:08;;;;;;;3.50;2.90;;;;;;;26.44;42.04;99193.92;108936;1279;23542;-55
2022/06/20 05:53:38;;;;;;;5.40;2.60;;;;;;;26.59;41.70;99201.38;108801;1280;139581;-55
2022/06/20 05:56:23;;;;;;;6.30;2.90;;;;;;;26.69;41.38;99196.28;108749;1279;22529;-55
2022/06/20 05:58:50;;;;;;;5.00;2.80;;;;;;;26.71;40.92;99182.98;108638;1278;137358;-55
2022/06/20 06:01:19;;;;;;;3.90;2.60;;;;;;;26.70;40.72;99174.42;108735;1279;22657;-55
2022/06/20 06:04:02;;;;;;;4.60;3.10;;;;;;;26.69;40.61;99168.74;108980;1279;22454;-55
2022/06/20 06:06:42;;;;;;;5.90;3.10;;;;;;;26.67;40.93;99158.34;108839;1279;138499;-56
2022/06/20 06:09:35;;;;;;;7.00;2.80;;;;;;;26.62;40.58;99152.58;109022;1279;22301;-55
2022/06/20 06:12:03;;;;;;;6.50;2.70;;;;;;;26.52;40.40;99143.79;108678;1280;137616;-56
2022/06/20 06:14:41;;;;;;;5.00;2.90;;;;;;;26.44;40.85;99147.55;108597;1279;22513;-56
2022/06/20 06:17:16;;;;;;;4.20;2.40;;;;;;;26.34;40.93;99143.56;108588;1280;139253;-56
2022/06/20 06:20:05;;;;;;;5.70;3.40;;;;;;;26.27;41.21;99138.52;108719;1280;22395;-56
2022/06/20 06:22:38;;;;;;;6.20;3.60;;;;;;;26.25;40.79;99129.48;108861;1279;138856;-57
2022/06/20 06:25:34;;;;;;;5.50;3.60;;;;;;;26.25;40.80;99120.14;108686;1279;23674;-56
2022/06/20 06:28:04;;;;;;;8.30;4.40;;;;;;;26.23;40.79;99112.22;109057;1277;22574;-57
2022/06/20 06:30:42;;;;;;;6.50;3.90;;;;;;;26.21;40.51;99112.41;108865;1279;137585;-55
2022/06/20 06:33:09;;;;;;;5.90;3.80;;;;;;;26.18;40.72;99106.30;109015;1279;22724;-57
2022/06/20 06:35:38;;;;;;;12.90;4.80;;;;;;;26.16;40.89;99107.27;108770;1279;137495;-56
2022/06/20 06:38:28;;;;;;;7.70;3.80;;;;;;;26.12;40.62;99105.61;108887;1279;22692;-55
2022/06/20 06:40:56;;;;;;;6.30;4.00;;;;;;;26.11;40.86;99105.38;108649;1277;138687;-55
2022/06/20 06:43:27;;;;;;;6.90;3.70;;;;;;;26.08;40.70;99100.70;108936;1279;23351;-55
2022/06/20 06:45:57;;;;;;;8.30;4.10;;;;;;;26.08;40.75;99107.40;109027;1278;23223;-60
2022/06/20 06:48:32;;;;;;;6.80;3.80;;;;;;;26.07;40.85;99103.55;108787;1280;137582;-60
2022/06/20 06:51:02;;;;;;;6.30;3.60;;;;;;;26.07;41.15;99105.46;108888;1277;24367;-60
2022/06/20 06:53:32;;;;;;;7.20;3.90;;;;;;;26.09;40.86;99094.08;108764;1280;139090;-60
2022/06/20 06:56:12;;;;;;;5.10;3.70;;;;;;;26.11;40.54;99094.92;108932;1279;23100;-61
2022/06/20 06:58:43;;;;;;;5.60;3.60;;;;;;;26.13;40.26;99096.62;108647;1279;137819;-59
2022/06/20 07:01:13;;;;;;;6.30;2.90;;;;;;;26.16;40.00;99093.48;108913;1278;22413;-61
2022/06/20 07:03:42;;;;;;;5.20;3.20;;;;;;;26.17;40.12;99087.91;108734;1280;22763;-61
2022/06/20 07:06:43;;;;;;;12.10;2.70;;;;;;;26.20;39.95;99088.92;108713;1280;137584;-57
2022/06/20 07:09:21;;;;;;;7.40;2.80;;;;;;;26.23;39.30;99087.16;108823;1279;22499;-57
2022/06/20 07:12:14;;;;;;;3.70;2.10;;;;;;;26.25;38.70;99085.98;108976;1277;137702;-55
2022/06/20 07:14:42;;;;;;;4.20;2.00;;;;;;;26.26;38.74;99081.52;108193;1284;23129;-55
2022/06/20 07:17:26;;;;;;;4.40;2.40;;;;;;;26.30;38.73;99084.02;108123;1285;138695;-56
2022/06/20 07:19:54;;;;;;;5.90;2.20;;;;;;;26.34;39.18;99080.91;108391;1285;22332;-56
2022/06/20 07:22:21;;;;;;;6.30;2.20;;;;;;;26.37;39.69;99082.32;108410;1283;22427;-55
2022/06/20 07:24:48;;;;;;;6.40;2.10;;;;;;;26.40;38.80;99080.28;108197;1284;138054;-56
2022/06/20 07:27:24;;;;;;;4.40;2.10;;;;;;;26.44;38.34;99089.27;108425;1284;22472;-55
2022/06/20 07:30:00;;;;;;;2.60;1.60;;;;;;;26.48;38.47;99085.84;108376;1284;139358;-55
2022/06/20 07:32:38;;;;;;;22.30;3.30;;;;;;;26.53;38.22;99084.81;108243;1285;22465;-56
2022/06/20 07:35:17;;;;;;;15.40;2.40;;;;;;;26.56;37.05;99094.97;108155;1285;137720;-56
2022/06/20 07:38:14;;;;;;;6.70;1.80;;;;;;;26.57;37.68;99091.73;108354;1285;22447;-57
2022/06/20 07:40:52;;;;;;;11.20;3.20;;;;;;;26.61;38.07;99084.92;108353;1283;137675;-58
2022/06/20 07:43:35;;;;;;;2.70;1.40;;;;;;;26.65;38.31;99075.17;108412;1284;22454;-57
2022/06/20 07:46:14;;;;;;;5.50;1.80;;;;;;;26.72;38.07;99076.86;108298;1284;22423;-56
2022/06/20 07:48:42;;;;;;;9.90;1.80;;;;;;;26.78;37.82;99073.53;108275;1284;137568;-56
2022/06/20 07:51:30;;;;;;;9.80;2.10;;;;;;;26.84;37.29;99072.09;108226;1281;22543;-56
2022/06/20 07:54:09;;;;;;;16.20;2.20;;;;;;;26.88;36.67;99075.17;108608;1279;138332;-57
2022/06/20 07:57:04;;;;;;;4.40;1.60;;;;;;;26.89;36.82;99078.64;108699;1281;23544;-56
2022/06/20 07:59:37;;;;;;;13.00;2.50;;;;;;;26.91;37.26;99082.25;108636;1279;137370;-56
2022/06/20 08:02:10;;;;;;;6.70;2.80;;;;;;;26.93;37.16;99078.08;108631;1279;22402;-56
2022/06/20 08:04:37;;;;;;;5.10;2.20;;;;;;;26.96;37.05;99072.63;108631;1279;137380;-56
2022/06/20 08:07:20;;;;;;;7.70;3.00;;;;;;;26.99;36.95;99071.70;108683;1279;22395;-59
2022/06/20 08:09:52;;;;;;;4.40;2.40;;;;;;;27.03;37.36;99070.80;108866;1279;22439;-59
2022/06/20 08:12:43;;;;;;;4.40;2.80;;;;;;;27.08;37.44;99071.50;108515;1279;138244;-59
2022/06/20 08:15:24;;;;;;;5.40;2.50;;;;;;;27.12;37.28;99059.19;108617;1279;23305;-55
2022/06/20 08:17:51;;;;;;;6.10;2.40;;;;;;;27.18;36.86;99052.86;108795;1279;138091;-54
2022/06/20 08:20:18;;;;;;;5.10;2.30;;;;;;;27.24;36.56;99056.79;108704;1280;22426;-56
2022/06/20 08:22:49;;;;;;;4.70;2.20;;;;;;;27.30;37.07;99061.08;108669;1279;137764;-55
2022/06/20 08:25:23;;;;;;;6.50;2.30;;;;;;;27.36;36.85;99064.27;108941;1279;22602;-55
2022/06/20 08:28:21;;;;;;;10.00;3.10;;;;;;;27.42;36.79;99060.59;108746;1279;22396;-56
2022/06/20 08:31:01;;;;;;;5.70;2.00;;;;;;;27.48;36.67;99053.62;108638;1279;138398;-56
2022/06/20 08:33:38;;;;;;;3.70;2.90;;;;;;;27.51;36.36;99055.41;109015;1279;22478;-57
2022/06/20 08:36:12;;;;;;;4.80;3.00;;;;;;;27.54;36.89;99053.30;108509;1280;139317;-57
2022/06/20 08:38:40;;;;;;;9.30;2.00;;;;;;;27.58;37.41;99049.84;108676;1279;22436;-56
2022/06/20 08:41:28;;;;;;;4.10;1.80;;;;;;;27.61;37.02;99050.98;108511;1281;137682;-58
2022/06/20 08:44:10;;;;;;;6.60;2.30;;;;;;;27.63;36.94;99050.32;108790;1280;22436;-57
2022/06/20 08:46:56;;;;;;;7.90;1.90;;;;;;;27.65;36.94;99053.05;108713;1278;138614;-57
2022/06/20 08:49:23;;;;;;;4.30;2.30;;;;;;;27.65;36.79;99061.37;108995;1279;22575;-62
2022/06/20 08:52:16;;;;;;;3.80;1.70;;;;;;;27.65;37.01;99060.58;108801;1279;22458;-61
2022/06/20 08:55:34;;;;;;;3.60;2.10;;;;;;;27.69;36.76;99048.70;108847;1279;137400;-61
2022/06/20 08:58:03;;;;;;;4.80;2.20;;;;;;;27.74;36.81;99040.02;108238;1285;22466;-61
2022/06/20 09:00:45;;;;;;;5.80;1.90;;;;;;;27.78;36.63;99035.59;108081;1285;137699;-61
2022/06/20 09:03:33;;;;;;;9.70;2.00;;;;;;;27.82;36.58;99033.88;108308;1284;22471;-61
2022/06/20 09:06:36;;;;;;;3.50;1.80;;;;;;;27.88;36.92;99041.43;108316;1282;137210;-61
2022/06/20 09:09:03;;;;;;;3.10;1.90;;;;;;;27.91;36.85;99034.98;108408;1284;22541;-61
2022/06/20 09:12:06;;;;;;;6.30;2.10;;;;;;;27.93;36.46;99037.01;108302;1284;138081;-61
2022/06/20 09:14:56;;;;;;;5.40;2.70;;;;;;;27.95;36.36;99027.02;108467;1283;22435;-61
2022/06/20 09:17:39;;;;;;;3.60;1.90;;;;;;;27.97;36.01;99019.70;108390;1283;137369;-57
2022/06/20 09:20:18;;;;;;;11.20;2.00;;;;;;;28.01;36.42;99015.55;108479;1283;22614;-57
2022/06/20 09:23:00;;;;;;;6.30;2.10;;;;;;;28.04;36.24;99018.54;108331;1283;139368;-57
2022/06/20 09:25:39;;;;;;;2.90;1.90;;;;;;;28.07;36.16;99016.73;108455;1283;23173;-57
2022/06/20 09:28:15;;;;;;;52.80;5.60;;;;;;;28.10;36.11;99021.64;108444;1283;22439;-57
2022/06/20 09:31:07;;;;;;;4.90;2.40;;;;;;;28.12;35.84;99017.16;108306;1282;137579;-59
2022/06/20 09:34:10;;;;;;;5.70;1.90;;;;;;;28.17;35.22;99009.37;108538;1279;22678;-56
2022/06/20 09:36:44;;;;;;;5.40;2.50;;;;;;;28.20;35.64;99001.98;108845;1279;138265;-57
2022/06/20 09:39:36;;;;;;;4.20;1.70;;;;;;;28.22;35.60;99013.45;108967;1279;22430;-57
2022/06/20 09:42:25;;;;;;;3.10;1.60;;;;;;;28.24;35.44;99018.27;107084;1279;139261;-57
2022/06/20 09:45:07;;;;;;;12.80;1.90;;;;;;;28.24;35.32;99021.64;104764;1279;24430;-55
2022/06/20 09:48:13;;;;;;;6.90;1.60;;;;;;;28.25;35.04;99015.48;104526;1281;139286;-57
2022/06/20 09:50:59;;;;;;;1.60;1.50;;;;;;;28.25;35.44;99008.11;104032;1286;23639;-57
2022/06/20 09:53:51;;;;;;;4.50;1.60;;;;;;;28.26;35.49;99009.09;104031;1286;137314;-56
2022/06/20 09:56:28;;;;;;;3.30;1.40;;;;;;;28.28;35.54;99010.46;108365;1284;22526;-56
2022/06/20 09:59:21;;;;;;;4.90;2.00;;;;;;;28.29;35.22;99005.89;108280;1284;137610;-57
2022/06/20 10:02:16;;;;;;;5.70;1.60;;;;;;;28.28;35.01;99009.56;108193;1285;22415;-56
2022/06/20 10:05:02;;;;;;;18.50;2.30;;;;;;;28.28;35.50;99003.88;107409;1291;137894;-56
2022/06/20 10:07:49;;;;;;;10.20;2.00;;;;;;;28.29;34.97;98995.55;107662;1289;22481;-56
2022/06/20 10:10:27;;;;;;;2.20;1.40;;;;;;;28.31;35.42;98990.85;107587;1290;23411;-56
2022/06/20 10:13:02;;;;;;;1.90;1.30;;;;;;;28.34;35.43;98987.20;107244;1291;137813;-56
2022/06/20 10:15:37;;;;;;;4.40;1.90;;;;;;;28.37;35.43;98978.34;107386;1291;22500;-56
2022/06/20 10:18:28;;;;;;;2.50;1.50;;;;;;;28.40;35.37;98971.40;107293;1290;138855;-56
2022/06/20 10:20:59;;;;;;;10.70;2.20;;;;;;;28.46;35.43;98970.69;107533;1290;23123;-56
2022/06/20 10:23:40;;;;;;;4.70;1.90;;;;;;;28.50;35.18;98969.45;107518;1290;138437;-56
2022/06/20 10:26:32;;;;;;;2.70;1.80;;;;;;;28.54;34.77;98963.39;107592;1286;22460;-56
2022/06/20 10:29:24;;;;;;;4.70;1.80;;;;;;;28.55;34.54;98970.04;108036;1284;138396;-56
2022/06/20 10:31:58;;;;;;;2.70;1.60;;;;;;;28.57;35.05;98967.57;108273;1286;22524;-56
2022/06/20 10:34:58;;;;;;;6.30;1.50;;;;;;;28.57;35.29;98963.23;108194;1284;22503;-57
2022/06/20 10:37:37;;;;;;;5.00;2.50;;;;;;;28.57;35.04;98966.14;108142;1285;22477;-56
2022/06/20 10:40:25;;;;;;;4.10;1.80;;;;;;;28.56;34.63;98960.61;108179;1285;22262;-57
2022/06/20 10:43:21;;;;;;;4.00;1.80;;;;;;;28.57;35.46;98958.91;108529;1279;139602;-57
2022/06/20 10:46:10;;;;;;;2.50;2.20;;;;;;;28.59;35.86;98959.16;107745;1285;690937;-58
2022/06/20 10:50:54;;;;;;;5.50;1.80;;;;;;;28.61;35.94;98953.80;106350;1302;557982;-57
2022/06/20 10:53:43;;;;;;;2.80;1.80;;;;;;;28.58;35.07;98953.86;108464;1283;137350;-57
2022/06/20 10:56:25;;;;;;;3.10;2.00;;;;;;;28.61;34.71;98952.85;108230;1287;22419;-58
2022/06/20 10:59:13;;;;;;;2.10;1.90;;;;;;;28.66;34.93;98954.09;108004;1287;136733;-58
2022/06/20 11:01:49;;;;;;;10.30;2.50;;;;;;;28.69;34.84;98955.39;108303;1286;22477;-57
2022/06/20 11:04:38;;;;;;;5.80;1.80;;;;;;;28.70;34.46;98948.11;108121;1284;356287;-57
2022/06/20 11:07:09;;;;;;;6.30;1.60;;;;;;;28.70;34.51;98934.56;104947;1284;22594;-56
2022/06/20 11:10:03;;;;;;;3.50;1.50;;;;;;;28.71;34.15;98931.84;108491;1284;22438;-57
2022/06/20 11:12:56;;;;;;;2.30;1.90;;;;;;;28.72;34.81;98924.46;108491;1283;137675;-57
2022/06/20 11:15:55;;;;;;;3.30;1.60;;;;;;;28.75;34.51;98920.46;108585;1283;22659;-54
2022/06/20 11:18:38;;;;;;;4.40;1.60;;;;;;;28.78;34.85;98918.41;107715;1290;137197;-57
2022/06/20 11:21:20;;;;;;;5.50;1.90;;;;;;;28.81;34.23;98916.52;107653;1290;22464;-57
2022/06/20 11:23:56;;;;;;;4.70;1.80;;;;;;;28.84;34.24;98910.86;107635;1290;137248;-57
2022/06/20 11:26:22;;;;;;;5.50;2.00;;;;;;;28.86;34.37;98911.73;107835;1289;22297;-57
2022/06/20 11:29:28;;;;;;;5.20;1.90;;;;;;;28.88;34.07;98909.73;107723;1290;137665;-63
2022/06/20 11:32:14;;;;;;;3.20;1.50;;;;;;;28.91;34.09;98911.98;106982;1298;22512;-61
2022/06/20 11:35:02;;;;;;;1.50;1.40;;;;;;;28.94;34.31;98908.88;107538;1290;137154;-61
2022/06/20 11:37:44;;;;;;;2.70;1.80;;;;;;;28.96;34.08;98908.65;107578;1290;22478;-57
2022/06/20 11:51:15;;;;;;;4.80;2.00;;;;;;;29.04;33.84;98894.48;109140;1277;22535;-59
2022/06/20 11:54:09;;;;;;;3.40;1.90;;;;;;;29.09;33.14;98896.83;108971;1277;23495;-60
2022/06/20 11:56:59;;;;;;;4.20;1.60;;;;;;;29.13;33.95;98891.64;109020;1277;22259;-59
2022/06/20 11:59:35;;;;;;;4.90;1.50;;;;;;;29.16;33.48;98891.94;109043;1277;22494;-60
2022/06/20 12:02:23;;;;;;;9.40;6.70;;;;;;;29.18;33.25;98886.34;109120;1276;22553;-59
2022/06/20 12:04:54;;;;;;;6.10;4.30;;;;;;;29.23;33.63;98886.83;108886;1277;137300;-60
2022/06/20 12:07:46;;;;;;;3.50;2.40;;;;;;;29.25;33.51;98879.55;109121;1277;22488;-59
2022/06/20 12:10:31;;;;;;;9.70;5.80;;;;;;;29.28;33.11;98872.82;109282;1277;22450;-61
2022/06/20 12:13:19;;;;;;;5.00;1.90;;;;;;;29.31;33.22;98870.80;109032;1277;137618;-61
2022/06/20 12:15:57;;;;;;;3.90;1.90;;;;;;;29.34;33.08;98870.09;109288;1277;22470;-60
2022/06/20 12:18:39;;;;;;;5.60;2.80;;;;;;;29.36;33.09;98866.24;109077;1277;22527;-61
2022/06/20 12:24:00;;;;;;;11.80;8.10;;;;;;;29.37;33.51;98855.76;108912;1277;137363;-61
2022/06/20 12:26:31;;;;;;;15.50;11.60;;;;;;;29.40;33.66;98854.90;108956;1279;22674;-61
2022/06/20 12:28:59;;;;;;;4.70;3.60;;;;;;;29.42;33.35;98854.50;109231;1277;22482;-61
2022/06/20 12:31:34;;;;;;;2.10;1.80;;;;;;;29.46;33.45;98851.20;109139;1277;22707;-61